Time;durP1;ratioP1;P1;durP2;ratioP2;P2;SDS_P1;SDS_P2;PMS_P1;PMS_P2;Temp;Humidity;BMP_temperature;BMP_pressure;BME280_temperature;BME280_humidity;BME280_pressure;Samples;Min_cycle;Max_cycle;Signal;HPM_P1;HPM_P2
2022/01/25 00:08:54;;;;;;;30.58;12.35;;;;;;;-5.50;64.47;101180.69;4981691;28;20078;-78
2022/01/25 00:29:12;;;;;;;28.33;11.20;;;;;;;-5.88;64.74;101088.19;4942219;28;20514;-79
2022/01/25 00:31:13;;;;;;;23.33;10.43;;;;;;;-5.89;64.47;101101.63;4977586;28;20069;-78
2022/01/25 00:33:41;;;;;;;24.42;10.18;;;;;;;-5.78;64.78;101123.63;4967069;28;20046;-77
2022/01/25 00:36:10;;;;;;;25.73;9.38;;;;;;;-5.77;65.04;101110.16;4965151;28;20137;-77
2022/01/25 00:38:36;;;;;;;28.80;10.15;;;;;;;-5.65;65.03;101124.59;4985685;28;20042;-79
2022/01/25 00:41:01;;;;;;;26.10;10.52;;;;;;;-5.81;64.92;101080.25;4982584;28;20046;-78
2022/01/25 00:43:28;;;;;;;26.27;10.38;;;;;;;-5.63;64.65;101083.34;4967085;28;20038;-78
2022/01/25 00:45:58;;;;;;;31.85;11.70;;;;;;;-5.51;64.69;101083.41;4967086;28;20042;-79
2022/01/25 00:48:43;;;;;;;29.10;10.32;;;;;;;-5.47;64.73;101079.44;4981152;28;20057;-79
2022/01/25 00:56:19;;;;;;;35.72;11.15;;;;;;;-5.34;65.24;101048.25;4984623;28;20042;-77
2022/01/25 00:58:45;;;;;;;31.80;11.18;;;;;;;-5.40;64.20;101045.25;4952917;28;20540;-77
2022/01/25 01:01:12;;;;;;;26.08;10.00;;;;;;;-5.27;64.19;101070.81;4981664;28;20042;-80
2022/01/25 01:03:38;;;;;;;30.23;10.93;;;;;;;-5.33;64.61;101076.31;4972991;28;20038;-76
2022/01/25 01:06:05;;;;;;;30.58;10.68;;;;;;;-5.47;64.32;101048.97;4965743;28;20049;-77
2022/01/25 01:08:32;;;;;;;25.70;11.00;;;;;;;-5.54;65.03;101029.00;4987627;28;20047;-78
2022/01/25 01:10:59;;;;;;;26.50;10.18;;;;;;;-5.44;64.39;101054.28;4972049;28;20042;-78
2022/01/25 01:30:04;;;;;;;29.27;11.05;;;;;;;-5.52;64.66;101007.19;4982042;28;20039;-78
2022/01/25 01:33:04;;;;;;;26.13;10.52;;;;;;;-5.41;64.87;101015.59;4966935;28;20558;-79
2022/01/25 01:35:46;;;;;;;26.10;9.85;;;;;;;-5.57;64.99;100986.53;4980385;28;20046;-76
2022/01/25 01:43:46;;;;;;;29.23;11.68;;;;;;;-5.47;64.61;101006.75;4972788;28;20058;-78
2022/01/25 01:48:49;;;;;;;31.50;10.38;;;;;;;-5.43;65.06;101006.97;4982239;28;20538;-78
2022/01/25 01:51:24;;;;;;;25.35;10.65;;;;;;;-5.49;64.96;100995.59;4952983;28;20042;-77
2022/01/25 01:53:50;;;;;;;26.38;11.50;;;;;;;-5.54;64.58;100988.41;4983582;28;20050;-76
2022/01/25 01:56:16;;;;;;;30.77;12.27;;;;;;;-5.77;64.91;100960.53;4965353;28;20055;-78
2022/01/25 01:58:41;;;;;;;29.80;11.68;;;;;;;-5.52;64.84;100989.41;4982222;28;20054;-77
2022/01/25 02:01:11;;;;;;;28.40;11.32;;;;;;;-5.62;65.18;100965.88;4947739;28;20506;-77
2022/01/25 02:03:37;;;;;;;27.30;11.40;;;;;;;-5.55;64.89;100957.06;4981953;28;20506;-77
2022/01/25 02:06:06;;;;;;;31.33;11.77;;;;;;;-5.63;64.94;100937.88;4981368;28;20121;-77
2022/01/25 02:08:34;;;;;;;28.40;10.80;;;;;;;-5.48;64.81;100964.38;4952776;28;20054;-77
2022/01/25 02:11:07;;;;;;;26.42;10.68;;;;;;;-6.88;64.66;100747.88;4966205;28;20553;-79
2022/01/25 02:13:46;;;;;;;27.05;11.35;;;;;;;-6.75;64.57;100747.16;4965361;28;20051;-78
2022/01/25 02:24:47;;;;;;;27.55;11.52;;;;;;;-5.47;64.09;100925.56;4986379;28;20092;-77
2022/01/25 02:27:14;;;;;;;22.55;9.88;;;;;;;-5.38;64.29;100939.69;4969778;28;20402;-78
2022/01/25 02:29:40;;;;;;;28.88;12.10;;;;;;;-5.47;64.62;100930.63;4951567;28;20042;-77
2022/01/25 02:32:07;;;;;;;25.95;11.02;;;;;;;-5.41;64.66;100935.28;4947634;28;20054;-78
2022/01/25 02:34:33;;;;;;;25.10;10.48;;;;;;;-5.37;65.01;100931.28;4964396;28;20539;-77
2022/01/25 02:37:04;;;;;;;25.75;10.77;;;;;;;-5.46;64.86;100896.88;4950751;28;20046;-76
2022/01/25 02:39:31;;;;;;;23.42;10.50;;;;;;;-5.35;65.14;100897.66;4951905;28;20523;-77
2022/01/25 02:41:57;;;;;;;24.38;9.88;;;;;;;-5.17;64.79;100925.16;4963157;28;20061;-79
2022/01/25 02:44:26;;;;;;;24.83;10.98;;;;;;;-5.19;64.96;100911.47;4963493;28;20039;-78
2022/01/25 02:49:19;;;;;;;24.90;9.75;;;;;;;-5.22;64.22;100883.31;4981105;28;20508;-77
2022/01/25 02:51:47;;;;;;;23.88;10.10;;;;;;;-5.03;64.52;100904.16;4981704;28;20131;-76
2022/01/25 02:54:15;;;;;;;24.95;9.68;;;;;;;-4.97;64.54;100896.13;4982832;28;20097;-78
2022/01/25 02:56:43;;;;;;;21.13;9.32;;;;;;;-5.07;64.52;100883.53;4937420;28;20395;-77
2022/01/25 02:59:10;;;;;;;22.85;9.85;;;;;;;-4.97;64.07;100901.19;4972611;28;20042;-78
2022/01/25 03:01:37;;;;;;;20.30;8.48;;;;;;;-4.99;64.24;100902.75;4975126;28;20038;-78
2022/01/25 03:04:04;;;;;;;23.80;9.68;;;;;;;-5.11;64.78;100884.06;4944925;28;20043;-76
2022/01/25 03:06:30;;;;;;;18.70;8.48;;;;;;;-5.07;64.23;100912.31;4973631;28;20038;-78
2022/01/25 03:08:56;;;;;;;17.63;8.20;;;;;;;-5.11;64.19;100910.38;4976600;28;20043;-78
2022/01/25 03:11:24;;;;;;;19.65;8.35;;;;;;;-5.18;64.81;100888.72;4964346;28;20034;-77
2022/01/25 03:13:54;;;;;;;19.73;8.55;;;;;;;-5.14;64.11;100905.94;4969277;28;20344;-77
2022/01/25 03:16:37;;;;;;;16.58;7.97;;;;;;;-5.16;64.38;100904.06;4982197;28;20090;-77
2022/01/25 03:19:29;;;;;;;19.48;8.55;;;;;;;-5.21;64.02;100910.47;4978414;28;21599;-78
2022/01/25 03:21:57;;;;;;;18.30;7.75;;;;;;;-5.23;64.10;100896.78;4962140;28;20031;-78
2022/01/25 03:24:22;;;;;;;19.15;7.45;;;;;;;-5.33;64.12;100891.06;4980774;28;20102;-78
2022/01/25 03:26:48;;;;;;;19.08;8.00;;;;;;;-5.49;64.49;100870.38;4982383;28;20046;-76
2022/01/25 03:29:14;;;;;;;19.48;7.93;;;;;;;-5.48;64.23;100873.06;4964185;28;20042;-79
2022/01/25 03:31:40;;;;;;;18.88;8.77;;;;;;;-5.35;64.80;100906.91;4983741;28;20505;-79
2022/01/25 03:34:07;;;;;;;21.92;9.65;;;;;;;-5.36;64.58;100910.22;4965482;28;20137;-77
2022/01/25 03:36:32;;;;;;;20.27;8.93;;;;;;;-5.67;63.98;100859.78;4950571;28;20490;-81
2022/01/25 03:38:58;;;;;;;21.42;8.98;;;;;;;-5.55;64.32;100864.88;4962972;28;20038;-80
2022/01/25 03:41:26;;;;;;;21.55;8.90;;;;;;;-5.73;64.20;100850.06;4978182;28;20042;-83
2022/01/25 03:44:00;;;;;;;17.10;8.18;;;;;;;-5.99;64.31;100817.72;4981396;28;20049;-79
2022/01/25 03:47:18;;;;;;;19.52;7.82;;;;;;;-5.69;64.44;100877.41;4961961;28;20046;-81
2022/01/25 03:52:00;;;;;;;14.27;6.65;;;;;;;-5.85;64.56;100879.59;4951343;28;20038;-76
2022/01/25 03:54:27;;;;;;;20.42;8.02;;;;;;;-5.78;64.72;100885.25;4963366;28;20046;-77
2022/01/25 03:56:52;;;;;;;20.27;7.68;;;;;;;-5.78;64.65;100875.09;4963418;28;20034;-80
2022/01/25 03:59:18;;;;;;;19.85;8.50;;;;;;;-5.81;64.97;100869.78;4986599;28;20034;-76
2022/01/25 04:01:45;;;;;;;18.05;8.18;;;;;;;-5.69;64.95;100861.34;4950126;28;20042;-79
2022/01/25 04:04:14;;;;;;;18.45;7.72;;;;;;;-5.86;64.71;100838.16;4981797;28;20045;-77
2022/01/25 04:06:44;;;;;;;16.55;7.60;;;;;;;-5.78;64.39;100844.66;4986470;28;20042;-81
2022/01/25 04:09:10;;;;;;;23.17;8.90;;;;;;;-5.94;64.71;100818.97;4969757;28;20425;-81
2022/01/25 04:11:37;;;;;;;15.82;7.72;;;;;;;-5.75;64.37;100852.50;4982086;28;20046;-79
2022/01/25 04:14:03;;;;;;;18.65;8.30;;;;;;;-5.88;64.55;100823.59;4968797;28;20042;-80
2022/01/25 04:16:34;;;;;;;20.38;8.45;;;;;;;-5.71;64.75;100842.59;4969446;28;20105;-77
2022/01/25 04:26:40;;;;;;;19.00;8.18;;;;;;;-5.45;64.41;100852.09;4965540;28;20035;-79
2022/01/25 04:29:06;;;;;;;21.15;8.73;;;;;;;-5.57;64.41;100815.69;4950554;28;20482;-77
2022/01/25 04:31:31;;;;;;;16.70;8.43;;;;;;;-5.65;63.86;100805.00;4964185;28;20066;-78
2022/01/25 04:50:16;;;;;;;20.15;8.70;;;;;;;-5.57;63.98;100825.84;4962448;28;20047;-78
2022/01/25 04:52:58;;;;;;;;;;;;;;;-5.62;63.89;100817.88;4951268;28;20050;-78
2022/01/25 04:55:32;;;;;;;15.70;7.68;;;;;;;-5.70;64.21;100798.69;4961848;28;19929;-78
2022/01/25 04:58:05;;;;;;;17.25;8.32;;;;;;;-5.75;64.30;100817.00;4960426;28;20502;-76
2022/01/25 05:00:32;;;;;;;18.10;7.53;;;;;;;-5.75;64.32;100822.06;4944694;28;20585;-79
2022/01/25 05:03:24;;;;;;;19.23;7.65;;;;;;;-5.88;64.16;100781.38;4962994;28;20039;-79
2022/01/25 05:05:59;;;;;;;19.08;7.95;;;;;;;-5.62;64.38;100798.47;4959754;28;20050;-75
2022/01/25 05:08:36;;;;;;;17.42;8.00;;;;;;;-5.55;64.46;100791.31;4963296;28;20074;-78
2022/01/25 05:11:08;;;;;;;20.05;8.70;;;;;;;-5.64;63.99;100782.25;4946676;28;20039;-79
2022/01/25 05:13:44;;;;;;;17.60;7.30;;;;;;;-5.69;63.95;100778.50;4962394;28;20133;-77
2022/01/25 05:18:46;;;;;;;14.55;7.40;;;;;;;-5.53;63.79;100783.03;4960132;28;20038;-77
2022/01/25 05:23:56;;;;;;;14.27;7.55;;;;;;;-5.72;64.15;100740.25;4945494;28;20065;-78
2022/01/25 05:26:24;;;;;;;17.33;7.50;;;;;;;-5.49;63.78;100771.44;4964388;28;20042;-77
2022/01/25 05:28:49;;;;;;;18.75;9.18;;;;;;;-5.53;63.88;100772.88;4961845;28;20077;-79
2022/01/25 05:31:15;;;;;;;17.33;8.10;;;;;;;-5.57;64.17;100758.22;4945622;28;20050;-77
2022/01/25 05:33:41;;;;;;;17.80;7.88;;;;;;;-5.39;64.12;100783.13;4962744;28;20034;-78
2022/01/25 05:36:07;;;;;;;16.63;7.53;;;;;;;-5.75;64.04;100720.63;4961857;28;20047;-78
2022/01/25 05:38:33;;;;;;;18.23;7.53;;;;;;;-5.51;63.56;100761.19;4946096;28;20039;-78
2022/01/25 05:41:02;;;;;;;15.18;6.75;;;;;;;-5.45;63.84;100760.75;4964055;28;20394;-76
2022/01/25 05:46:17;;;;;;;16.40;6.95;;;;;;;-5.54;64.02;100758.44;4967462;28;20035;-78
2022/01/25 05:48:45;;;;;;;17.88;7.75;;;;;;;-5.69;64.46;100740.47;4966247;28;20047;-78
2022/01/25 05:51:11;;;;;;;17.83;7.05;;;;;;;-5.79;63.93;100713.56;4969248;28;20035;-78
2022/01/25 05:53:37;;;;;;;14.13;6.82;;;;;;;-5.84;63.64;100716.56;4965107;28;20073;-78
2022/01/25 05:56:04;;;;;;;19.10;6.95;;;;;;;-5.58;64.04;100750.50;4964348;28;20145;-78
2022/01/25 05:58:30;;;;;;;17.40;6.93;;;;;;;-5.77;64.04;100703.56;4966492;28;20442;-79
2022/01/25 06:00:56;;;;;;;15.55;6.85;;;;;;;-5.56;63.40;100739.69;4968388;28;20113;-77
2022/01/25 06:03:22;;;;;;;15.18;6.32;;;;;;;-5.79;63.61;100712.69;4956359;28;20499;-77
2022/01/25 06:05:48;;;;;;;16.80;7.65;;;;;;;-5.63;63.63;100727.38;4970782;28;20047;-77
2022/01/25 06:08:14;;;;;;;17.33;7.25;;;;;;;-5.62;63.62;100729.09;4970042;28;20050;-77
2022/01/25 06:10:39;;;;;;;19.13;7.70;;;;;;;-5.66;64.29;100720.41;4970665;28;20039;-77
2022/01/25 06:13:05;;;;;;;13.55;6.90;;;;;;;-5.64;63.99;100706.19;4968888;28;20043;-77
2022/01/25 06:15:34;;;;;;;15.95;7.70;;;;;;;-5.48;63.35;100725.91;4974166;28;20071;-79
2022/01/25 06:18:00;;;;;;;15.45;7.18;;;;;;;-5.81;63.73;100684.69;4979751;28;20046;-78
2022/01/25 06:20:28;;;;;;;15.15;6.80;;;;;;;-5.54;63.48;100722.06;4973119;28;20055;-77
2022/01/25 06:22:54;;;;;;;13.82;6.40;;;;;;;-5.55;64.10;100717.75;5003416;28;20035;-78
2022/01/25 06:25:23;;;;;;;14.27;6.72;;;;;;;-5.54;64.13;100700.09;4987251;28;20034;-79
2022/01/25 06:27:49;;;;;;;16.67;6.95;;;;;;;-5.62;63.71;100670.75;4975831;28;20280;-78
2022/01/25 06:30:20;;;;;;;19.23;7.25;;;;;;;-5.50;63.85;100684.31;4984947;28;20089;-78
2022/01/25 06:32:47;;;;;;;18.58;8.20;;;;;;;-5.30;64.00;100700.94;4987126;28;20043;-78
2022/01/25 06:35:15;;;;;;;14.77;6.72;;;;;;;-5.29;64.00;100689.13;4962040;28;20066;-79
2022/01/25 06:37:41;;;;;;;17.20;7.93;;;;;;;-5.30;63.76;100687.34;4965553;28;20398;-78
2022/01/25 06:40:08;;;;;;;16.20;7.68;;;;;;;-5.24;64.01;100675.09;4962741;28;20087;-79
2022/01/25 06:42:35;;;;;;;16.85;7.88;;;;;;;-5.32;63.34;100673.69;4982593;28;20049;-77
2022/01/25 06:45:07;;;;;;;18.30;7.30;;;;;;;-5.15;63.65;100690.06;4963716;28;20038;-78
2022/01/25 06:47:32;;;;;;;14.67;6.60;;;;;;;-5.25;63.82;100669.91;4980918;28;20046;-79
2022/01/25 06:49:58;;;;;;;17.52;8.18;;;;;;;-5.21;63.71;100666.81;4983128;28;20793;-77
2022/01/25 06:52:29;;;;;;;16.95;7.40;;;;;;;-5.11;63.83;100675.94;4963005;28;20050;-77
2022/01/25 06:54:58;;;;;;;15.45;7.25;;;;;;;-5.12;63.92;100669.09;4953465;28;20042;-79
2022/01/25 06:57:27;;;;;;;16.00;7.15;;;;;;;-5.15;63.75;100647.78;4980171;28;20090;-77
2022/01/25 06:59:55;;;;;;;14.35;7.10;;;;;;;-4.88;63.77;100675.81;4962128;28;20058;-78
2022/01/25 07:02:38;;;;;;;15.40;7.15;;;;;;;-5.07;63.74;100633.06;4963846;28;20125;-77
2022/01/25 07:05:04;;;;;;;18.27;8.18;;;;;;;-4.89;63.63;100648.66;4952475;28;20101;-77
2022/01/25 07:07:33;;;;;;;18.35;7.50;;;;;;;-5.02;62.94;100636.81;4982563;28;20042;-75
2022/01/25 07:09:59;;;;;;;19.15;8.20;;;;;;;-4.87;63.42;100658.94;4980635;28;20092;-76
2022/01/25 07:12:30;;;;;;;21.17;7.95;;;;;;;-5.14;63.17;100624.16;4969102;28;20049;-77
2022/01/25 07:14:57;;;;;;;18.15;7.88;;;;;;;-5.03;63.31;100654.50;4967450;28;20134;-81
2022/01/25 07:17:25;;;;;;;16.95;8.23;;;;;;;-4.87;63.31;100656.41;4942670;28;20152;-80
2022/01/25 07:19:55;;;;;;;18.77;7.85;;;;;;;-4.85;63.17;100645.56;4966235;28;20066;-79
2022/01/25 07:22:22;;;;;;;18.48;7.68;;;;;;;-5.08;63.35;100635.53;4966490;28;20086;-79
2022/01/25 07:24:51;;;;;;;18.88;7.65;;;;;;;-5.81;62.56;100537.63;4966441;28;20050;-78
2022/01/25 07:27:25;;;;;;;17.05;6.90;;;;;;;-5.72;63.44;100572.88;4965915;28;20065;-80
2022/01/25 07:29:51;;;;;;;16.65;7.43;;;;;;;-5.95;62.94;100548.47;4953499;28;20042;-77
2022/01/25 07:32:17;;;;;;;15.85;6.85;;;;;;;-5.39;63.45;100618.19;4965974;28;20069;-76
2022/01/25 07:34:43;;;;;;;15.68;6.85;;;;;;;-5.07;63.77;100647.44;4967369;28;20144;-78
2022/01/25 07:37:12;;;;;;;17.25;7.65;;;;;;;-4.93;63.78;100616.22;4973203;28;20371;-78
2022/01/25 07:39:39;;;;;;;15.23;6.65;;;;;;;-4.77;63.77;100610.50;4963712;28;20034;-77
2022/01/25 07:42:05;;;;;;;18.67;7.22;;;;;;;-4.58;63.12;100632.94;4980323;28;20107;-78
2022/01/25 07:44:40;;;;;;;16.27;6.75;;;;;;;-4.46;63.70;100614.16;4966680;28;20086;-78
2022/01/25 07:47:08;;;;;;;16.80;6.85;;;;;;;-4.39;63.64;100613.78;4982334;28;20049;-79
2022/01/25 07:49:34;;;;;;;16.92;6.57;;;;;;;-4.41;62.80;100602.66;4953114;28;20439;-80
2022/01/25 07:52:00;;;;;;;15.70;7.07;;;;;;;-4.46;63.38;100598.91;4965961;28;20046;-79
2022/01/25 07:54:26;;;;;;;16.70;6.50;;;;;;;-4.44;63.11;100603.34;4984348;28;20086;-78
2022/01/25 07:56:53;;;;;;;18.13;7.30;;;;;;;-4.52;62.69;100570.59;4966265;28;20042;-78
2022/01/25 07:59:19;;;;;;;16.05;6.82;;;;;;;-4.47;63.00;100587.88;4966981;28;20039;-75
2022/01/25 08:01:45;;;;;;;22.30;9.15;;;;;;;-4.57;62.85;100561.00;4980228;28;20074;-78
2022/01/25 08:04:19;;;;;;;14.23;6.82;;;;;;;-4.34;63.29;100571.75;4980541;28;20070;-78
2022/01/25 08:06:48;;;;;;;16.98;7.47;;;;;;;-4.14;63.00;100584.84;4964418;28;20092;-79
2022/01/25 08:09:20;;;;;;;17.58;7.57;;;;;;;-4.25;62.96;100567.25;4962605;28;20039;-79
2022/01/25 08:11:46;;;;;;;19.60;7.82;;;;;;;-4.44;63.20;100527.09;4980478;28;20049;-77
2022/01/25 08:14:19;;;;;;;16.45;7.55;;;;;;;-4.36;62.75;100534.31;4955833;28;20046;-80
2022/01/25 08:16:50;;;;;;;16.08;7.10;;;;;;;-4.14;62.45;100577.22;4958214;28;20062;-77
2022/01/25 08:19:17;;;;;;;17.25;7.57;;;;;;;-4.25;62.62;100562.16;4962874;28;20035;-79
2022/01/25 08:21:45;;;;;;;17.35;7.40;;;;;;;-4.40;62.74;100543.41;4946946;28;20498;-78
2022/01/25 08:24:14;;;;;;;18.80;7.78;;;;;;;-4.21;62.47;100563.25;4969124;28;20367;-78
2022/01/25 08:26:41;;;;;;;14.45;7.57;;;;;;;-4.15;62.23;100557.66;4960265;28;20553;-78
2022/01/25 08:29:08;;;;;;;15.88;7.50;;;;;;;-4.24;62.21;100557.97;4962511;28;20133;-78
2022/01/25 08:31:35;;;;;;;14.93;7.63;;;;;;;-4.41;62.78;100511.16;4964428;28;20050;-77
2022/01/25 08:34:01;;;;;;;18.30;7.93;;;;;;;-4.11;63.30;100539.28;4967606;28;20070;-80
2022/01/25 08:36:27;;;;;;;15.02;7.40;;;;;;;-4.05;62.29;100529.47;4951771;28;20115;-79
2022/01/25 08:38:54;;;;;;;18.92;7.18;;;;;;;-3.98;62.82;100540.94;4961820;28;20051;-79
2022/01/25 08:41:20;;;;;;;18.92;8.18;;;;;;;-3.76;62.74;100545.63;4945480;28;20161;-77
2022/01/25 08:43:46;;;;;;;37.75;18.33;;;;;;;-3.80;62.63;100513.16;4962142;28;20126;-77
2022/01/25 08:46:13;;;;;;;16.90;7.40;;;;;;;-3.92;61.68;100505.66;4967092;28;20583;-78
2022/01/25 08:48:39;;;;;;;19.38;7.72;;;;;;;-3.80;62.33;100523.34;4982990;28;20727;-78
2022/01/25 08:51:06;;;;;;;18.60;7.82;;;;;;;-3.79;61.95;100512.38;4966474;28;20050;-76
2022/01/25 08:53:35;;;;;;;19.85;8.20;;;;;;;-4.03;62.22;100463.47;4936651;28;20452;-78
2022/01/25 08:56:02;;;;;;;17.08;7.65;;;;;;;-3.63;61.98;100501.47;4964236;28;20043;-81
2022/01/25 08:58:28;;;;;;;16.75;7.75;;;;;;;-4.15;61.99;100397.50;4949005;28;20102;-77
2022/01/25 09:00:53;;;;;;;26.33;11.02;;;;;;;-4.06;61.63;100410.75;4961736;28;20046;-78
2022/01/25 09:03:19;;;;;;;19.40;8.05;;;;;;;-4.24;61.94;100368.19;4964076;28;20046;-79
2022/01/25 09:05:45;;;;;;;18.10;8.13;;;;;;;-3.80;62.02;100425.03;4965210;28;20070;-80
2022/01/25 09:08:16;;;;;;;17.45;7.50;;;;;;;-3.60;61.27;100460.03;4949924;28;20043;-78
2022/01/25 09:10:42;;;;;;;17.70;7.88;;;;;;;-3.66;62.25;100453.84;4933824;28;20031;-80
2022/01/25 09:13:11;;;;;;;21.77;8.18;;;;;;;-3.42;61.60;100465.34;4949266;28;20049;-80
2022/01/25 09:15:45;;;;;;;19.92;8.77;;;;;;;-3.36;61.65;100464.03;4965484;28;20051;-79
2022/01/25 09:18:11;;;;;;;23.65;9.65;;;;;;;-3.28;61.73;100463.59;4985527;28;20054;-80
2022/01/25 09:20:38;;;;;;;20.27;9.15;;;;;;;-3.22;60.92;100457.19;4969100;28;20053;-77
2022/01/25 09:23:07;;;;;;;20.92;8.25;;;;;;;-4.12;61.26;100301.09;4967095;28;20588;-79
2022/01/25 09:25:34;;;;;;;16.48;8.05;;;;;;;-3.27;61.37;100471.31;4956086;28;20251;-78
2022/01/25 09:28:01;;;;;;;19.58;8.40;;;;;;;-3.66;61.96;100385.13;4956530;28;20046;-78
2022/01/25 09:30:30;;;;;;;25.25;8.88;;;;;;;-4.15;61.14;100300.91;4970723;28;20046;-81
2022/01/25 09:33:25;;;;;;;;;;;;;;;;;;;;;
2022/01/25 09:36:17;;;;;;;22.23;9.43;;;;;;;-3.88;60.96;100321.97;4997106;28;20073;-81
2022/01/25 09:39:16;;;;;;;21.08;9.80;;;;;;;-4.38;61.50;100240.31;4981236;28;20085;-82
2022/01/25 09:41:50;;;;;;;21.65;9.32;;;;;;;-3.81;60.93;100295.22;4967759;28;20513;-80
2022/01/25 09:44:16;;;;;;;24.25;9.43;;;;;;;-4.19;61.48;100268.47;4974291;28;20050;-81
2022/01/25 09:46:48;;;;;;;23.92;9.57;;;;;;;-4.29;61.03;100228.94;4968654;28;20055;-82
2022/01/25 09:49:16;;;;;;;21.15;9.25;;;;;;;-3.16;61.29;100372.63;4972129;28;20492;-82
2022/01/25 09:51:44;;;;;;;22.60;10.20;;;;;;;-3.11;60.91;100396.69;4987332;28;20050;-82
2022/01/25 09:54:14;;;;;;;24.05;9.95;;;;;;;-3.04;60.79;100380.97;4975387;28;20073;-83
2022/01/25 09:56:44;;;;;;;27.60;10.68;;;;;;;-3.26;61.34;100322.00;4972719;28;20132;-80
2022/01/25 09:59:13;;;;;;;23.20;9.77;;;;;;;-3.24;60.11;100321.28;4949849;28;20123;-80
2022/01/25 10:01:38;;;;;;;22.10;9.55;;;;;;;-2.93;60.47;100373.00;4958809;28;20045;-81
2022/01/25 10:04:25;;;;;;;24.70;10.18;;;;;;;-3.08;59.67;100384.13;4986681;28;20462;-82
2022/01/25 10:06:51;;;;;;;23.23;10.10;;;;;;;-3.24;60.51;100349.28;4986438;28;20049;-82
2022/01/25 10:09:19;;;;;;;22.88;9.40;;;;;;;-3.13;61.00;100354.13;4955652;28;20096;-80
2022/01/25 10:11:45;;;;;;;38.42;9.63;;;;;;;-3.00;61.09;100364.16;4941080;28;20137;-81
2022/01/25 10:14:13;;;;;;;21.92;10.30;;;;;;;-3.00;61.02;100376.03;4976705;28;20049;-81
2022/01/25 10:17:09;;;;;;;20.67;8.98;;;;;;;-2.95;61.08;100366.97;5377549;23;20957;31
2022/01/25 10:19:43;;;;;;;22.88;9.88;;;;;;;-3.25;61.54;100296.63;4948863;28;20069;-86
2022/01/25 10:22:14;;;;;;;20.38;8.90;;;;;;;-2.70;60.95;100361.53;4953712;28;20102;-86
2022/01/25 10:24:40;;;;;;;20.42;9.45;;;;;;;-2.76;60.44;100348.47;4950027;28;20050;-83
2022/01/25 10:27:08;;;;;;;20.38;8.90;;;;;;;-3.24;60.43;100252.53;4941092;28;20065;-80
2022/01/25 10:29:36;;;;;;;21.80;9.45;;;;;;;-3.46;60.56;100222.53;4937268;28;20502;-80
2022/01/25 10:32:15;;;;;;;25.55;10.30;;;;;;;-3.14;60.14;100279.38;4939963;28;20039;-82
2022/01/25 10:34:46;;;;;;;24.63;9.50;;;;;;;-3.28;61.09;100240.44;4943800;28;20462;-83
2022/01/25 10:37:24;;;;;;;22.17;9.82;;;;;;;-2.66;60.55;100330.34;4929314;28;20450;-82
2022/01/25 10:39:52;;;;;;;16.33;8.45;;;;;;;-2.66;60.76;100314.16;4955204;28;20043;-83
2022/01/25 10:42:28;;;;;;;19.35;8.50;;;;;;;-2.83;60.41;100301.41;4939360;28;20035;-79
2022/01/25 10:44:55;;;;;;;19.30;9.05;;;;;;;-2.88;60.34;100310.47;4953353;28;20043;-83
2022/01/25 10:47:40;;;;;;;16.75;7.70;;;;;;;-2.87;60.69;100317.31;4942446;28;20280;-81
2022/01/25 10:50:17;;;;;;;16.42;7.10;;;;;;;-2.98;60.37;100283.63;4945124;28;20036;-82
2022/01/25 10:52:43;;;;;;;16.02;6.95;;;;;;;-3.80;60.25;100157.06;4956586;28;20035;-81
2022/01/25 10:55:13;;;;;;;18.08;7.63;;;;;;;-3.09;60.41;100298.34;4938383;28;20046;-81
2022/01/25 10:57:39;;;;;;;15.93;6.88;;;;;;;-3.35;60.16;100240.94;4917613;28;20125;-80
2022/01/25 11:00:09;;;;;;;12.68;6.97;;;;;;;-3.71;60.32;100167.75;4952584;28;20082;-83
2022/01/25 11:02:49;;;;;;;14.95;7.20;;;;;;;-3.08;60.21;100287.34;4919157;28;20046;-81
2022/01/25 11:05:26;;;;;;;16.60;7.18;;;;;;;-3.14;60.59;100289.56;4936491;28;20043;-83
2022/01/25 11:08:22;;;;;;;14.98;6.80;;;;;;;-4.09;60.34;100159.75;4938096;28;20098;-82
2022/01/25 11:11:09;;;;;;;;;;;;;;;;;;;;;
2022/01/25 11:13:48;;;;;;;13.27;5.95;;;;;;;-4.52;60.15;100073.50;4959674;29;20047;-78
2022/01/25 11:16:33;;;;;;;11.85;6.07;;;;;;;-4.66;60.86;100043.91;4924931;28;20042;-80
2022/01/25 11:19:13;;;;;;;15.32;7.32;;;;;;;-4.01;60.93;100162.72;4934910;28;20508;-76
2022/01/25 11:21:42;;;;;;;14.75;6.88;;;;;;;-3.68;60.18;100221.34;4941738;29;20135;-78
2022/01/25 11:24:11;;;;;;;14.48;6.32;;;;;;;-3.69;60.08;100217.06;4931509;29;20051;-78
2022/01/25 11:26:37;;;;;;;17.88;7.43;;;;;;;-3.45;60.50;100259.03;4936979;29;20050;-79
2022/01/25 11:29:08;;;;;;;13.57;6.88;;;;;;;-3.46;60.77;100254.72;4931078;29;20076;-76
2022/01/25 11:31:38;;;;;;;17.85;7.32;;;;;;;-3.37;60.95;100248.47;4928273;29;20070;-79
2022/01/25 11:34:08;;;;;;;14.60;6.43;;;;;;;-3.45;60.73;100224.28;4924464;29;20422;-77
2022/01/25 11:37:04;;;;;;;13.27;6.07;;;;;;;-3.33;60.72;100237.66;4927748;28;20082;-78
2022/01/25 11:39:31;;;;;;;14.30;6.25;;;;;;;-3.48;60.55;100209.69;4915085;29;20051;-77
2022/01/25 11:42:17;;;;;;;14.00;6.22;;;;;;;-3.50;60.23;100212.97;4946524;28;20047;-80
2022/01/25 11:44:52;;;;;;;10.15;5.32;;;;;;;-3.70;60.13;100215.31;4918221;29;20094;-80
2022/01/25 11:47:36;;;;;;;13.05;5.72;;;;;;;-3.81;60.58;100213.81;4933144;29;20051;-79
2022/01/25 11:50:08;;;;;;;10.57;5.35;;;;;;;-3.76;61.10;100212.41;4933858;29;20207;-79
2022/01/25 11:52:34;;;;;;;;;;;;;;;-3.69;60.23;100211.97;4932536;29;20103;-77
2022/01/25 11:55:39;;;;;;;9.98;5.03;;;;;;;-3.84;60.91;100196.72;4932480;29;19958;-78
2022/01/25 11:58:08;;;;;;;8.73;4.97;;;;;;;-3.83;61.22;100193.41;4915518;29;20389;-81
2022/01/25 12:00:39;;;;;;;8.90;4.85;;;;;;;-3.89;60.68;100154.91;4929893;29;20043;-77
2022/01/25 12:03:41;;;;;;;11.43;4.57;;;;;;;-3.98;60.63;100177.31;4942817;28;20135;-79
2022/01/25 12:06:19;;;;;;;;;;;;;;;-4.14;61.27;100180.63;4927870;29;20060;-78
2022/01/25 12:09:18;;;;;;;10.75;5.20;;;;;;;-4.17;61.00;100183.00;4934496;29;19934;-78
2022/01/25 12:11:58;;;;;;;9.98;5.20;;;;;;;-4.16;61.33;100172.06;4929996;28;20574;-80
2022/01/25 12:14:41;;;;;;;11.00;5.43;;;;;;;-4.20;61.52;100148.13;4934432;29;20111;-79
2022/01/25 12:17:06;;;;;;;12.95;5.38;;;;;;;-4.06;61.37;100160.72;4934284;29;20720;-79
2022/01/25 12:19:40;;;;;;;9.38;4.45;;;;;;;-4.09;60.92;100154.69;4940135;29;20181;-78
2022/01/25 12:22:12;;;;;;;11.20;5.50;;;;;;;-4.20;61.73;100120.19;4950113;28;20048;-79
2022/01/25 12:24:59;;;;;;;10.55;5.35;;;;;;;-3.94;61.15;100167.38;4948680;28;20043;-80
2022/01/25 12:27:38;;;;;;;10.50;4.85;;;;;;;-3.92;61.55;100169.13;4918169;29;20510;-77
2022/01/25 12:30:13;;;;;;;12.48;5.85;;;;;;;-4.14;61.32;100129.81;4926972;29;20082;-80
2022/01/25 12:33:02;;;;;;;9.15;4.38;;;;;;;-4.08;61.38;100145.38;4937302;29;20040;-77
2022/01/25 12:35:38;;;;;;;10.90;5.05;;;;;;;-4.09;60.93;100172.47;4935336;29;20058;-79
2022/01/25 12:38:20;;;;;;;10.80;4.82;;;;;;;-4.17;61.08;100175.38;4920476;29;20526;-76
2022/01/25 12:41:00;;;;;;;10.52;5.28;;;;;;;-4.11;61.73;100181.69;4931156;29;20051;-79
2022/01/25 12:43:29;;;;;;;11.75;5.43;;;;;;;-4.03;61.56;100171.06;4932191;29;20098;-78
2022/01/25 12:46:00;;;;;;;11.13;5.28;;;;;;;-4.12;61.21;100173.97;4956248;28;20051;-81
2022/01/25 12:48:33;;;;;;;12.75;5.45;;;;;;;-4.22;61.74;100161.53;4946775;29;20108;-79
2022/01/25 12:51:06;;;;;;;14.25;4.82;;;;;;;-4.27;62.08;100164.69;4959807;28;20047;-81
2022/01/25 12:53:34;;;;;;;9.73;5.25;;;;;;;-4.38;61.33;100145.41;4930286;29;20083;-79
2022/01/25 12:56:05;;;;;;;11.57;5.55;;;;;;;-4.35;61.93;100152.34;4933381;29;20043;-77
2022/01/25 12:58:33;;;;;;;11.40;5.20;;;;;;;-4.35;61.79;100160.84;4919715;29;20036;-76
2022/01/25 13:01:02;;;;;;;13.93;5.35;;;;;;;-4.50;61.68;100162.50;4933082;29;20322;-79
2022/01/25 13:03:33;;;;;;;10.48;5.18;;;;;;;-4.57;61.92;100166.34;4917570;29;20043;-80
2022/01/25 13:06:00;;;;;;;11.40;5.30;;;;;;;-4.60;61.36;100184.84;4937648;29;20146;-76
2022/01/25 13:08:34;;;;;;;11.70;5.07;;;;;;;-4.72;61.69;100181.56;4926851;29;20035;-78
2022/01/25 13:11:20;;;;;;;10.13;5.03;;;;;;;-4.79;61.88;100179.47;4936707;29;20039;-78
2022/01/25 13:14:01;;;;;;;12.93;5.13;;;;;;;-4.80;61.93;100188.75;4935061;28;20158;-75
2022/01/25 13:16:56;;;;;;;9.70;4.75;;;;;;;-4.91;62.67;100185.56;4923323;29;20044;-82